TimeIST,TemperatureF,Dew PointF,Humidity,Sea Level PressureIn,VisibilityMPH,Wind Direction,Wind SpeedMPH,Gust SpeedMPH,PrecipitationIn,Events,Conditions,WindDirDegrees,DateUTC
12:30 AM,77.0,69.8,78,29.80,-9999.0,North,-9999.0,-,N/A,,Mist,0,2012-10-01 19:00:00
1:30 AM,77.0,69.8,78,29.80,-9999.0,North,-9999.0,-,N/A,,Mist,0,2012-10-01 20:00:00
2:00 AM,77.0,69.8,78,29.80,-9999.0,North,-9999.0,-,N/A,,Mist,0,2012-10-01 20:30:00
2:30 AM,78,71,74,29.76,1,Calm,Calm,,,,Mist,,2012-10-01 21:00:00
2:30 AM,77.0,69.8,78,29.80,-9999.0,North,-9999.0,-,N/A,,Mist,0,2012-10-01 21:00:00
3:30 AM,77.0,71.6,83,29.80,-9999.0,North,-9999.0,-,N/A,,Mist,0,2012-10-01 22:00:00
4:00 AM,77.0,71.6,83,29.80,-9999.0,North,-9999.0,-,N/A,,Mist,0,2012-10-01 22:30:00
5:30 AM,73,73,99,29.77,1,Calm,Calm,,,,Mist,,2012-10-02 00:00:00
7:30 AM,71.6,71.6,100,29.80,-9999.0,North,-9999.0,-,N/A,,Mist,0,2012-10-02 02:00:00
8:30 AM,73,73,99,29.80,1,Calm,Calm,,,,Mist,,2012-10-02 03:00:00
8:30 AM,73.4,73.4,100,29.83,-9999.0,North,-9999.0,-,N/A,,Mist,0,2012-10-02 03:00:00
9:00 AM,75.2,71.6,89,29.83,1.9,Calm,Calm,-,N/A,,Mist,0,2012-10-02 03:30:00
11:00 AM,80.6,69.8,70,29.83,3.1,West,6.9,-,N/A,,Haze,270,2012-10-02 05:30:00
11:30 AM,84,72,61,29.79,2,WNW,6.9,,,,Haze,290,2012-10-02 06:00:00
12:00 PM,86.0,73.4,66,29.83,3.7,West,5.8,-,N/A,,Unknown,270,2012-10-02 06:30:00
12:30 PM,87.8,71.6,58,29.80,3.7,West,6.9,-,N/A,,Unknown,280,2012-10-02 07:00:00
1:30 PM,91.4,68.0,46,29.77,3.7,WNW,8.1,-,N/A,,Unknown,290,2012-10-02 08:00:00
2:00 PM,91.4,68.0,46,29.77,3.7,West,8.1,-,N/A,,Unknown,280,2012-10-02 08:30:00
3:30 PM,93.2,69.8,46,29.77,4.3,WNW,6.9,-,N/A,,Unknown,290,2012-10-02 10:00:00
4:00 PM,89.6,68.0,49,29.74,4.3,West,8.1,-,N/A,,Unknown,270,2012-10-02 10:30:00
5:30 PM,89.6,71.6,55,29.71,3.7,WNW,2.3,-,N/A,,Unknown,290,2012-10-02 12:00:00
6:00 PM,87.8,71.6,58,29.71,3.7,Calm,Calm,-,N/A,,Unknown,0,2012-10-02 12:30:00
7:00 PM,84.2,71.6,66,29.71,3.7,Calm,Calm,-,N/A,,Unknown,0,2012-10-02 13:30:00
7:30 PM,82.4,73.4,74,29.71,3.1,Calm,Calm,-,N/A,,Haze,0,2012-10-02 14:00:00
8:00 PM,82.4,73.4,74,29.74,3.1,Calm,Calm,-,N/A,,Haze,0,2012-10-02 14:30:00
11:00 PM,78.8,73.4,83,29.74,2.5,Calm,Calm,-,N/A,,Haze,0,2012-10-02 17:30:00
11:30 PM,78,74,83,29.71,2,Calm,Calm,,,,Mist,,2012-10-02 18:00:00
11:30 PM,78.8,73.4,83,29.74,2.5,Calm,Calm,-,N/A,,Haze,0,2012-10-02 18:00:00